Time;durP1;ratioP1;P1;durP2;ratioP2;P2;SDS_P1;SDS_P2;PMS_P1;PMS_P2;Temp;Humidity;BMP_temperature;BMP_pressure;BME280_temperature;BME280_humidity;BME280_pressure;Samples;Min_cycle;Max_cycle;Signal;HPM_P1;HPM_P2
2023/11/30 00:00:52;;;;;;;3.40;1.30;;;28.30;99.10;;;;;;5043786;28;20552;-63
2023/11/30 00:03:19;;;;;;;1.33;0.50;;;28.00;99.10;;;;;;5044696;28;20522;-63
2023/11/30 00:05:46;;;;;;;3.90;0.93;;;28.00;99.50;;;;;;5045074;28;20060;-66
2023/11/30 00:08:13;;;;;;;2.58;1.10;;;27.90;99.10;;;;;;5045739;28;20033;-63
2023/11/30 00:10:40;;;;;;;4.07;1.30;;;27.30;99.90;;;;;;5045166;28;20039;-64
2023/11/30 00:13:07;;;;;;;3.35;1.33;;;26.70;99.90;;;;;;5045877;28;20020;-63
2023/11/30 00:15:35;;;;;;;6.93;1.55;;;26.80;99.90;;;;;;5045347;28;20110;-65
2023/11/30 00:18:02;;;;;;;1.83;0.70;;;27.40;99.90;;;;;;5045851;28;20435;-66
2023/11/30 00:20:28;;;;;;;1.90;1.27;;;28.10;98.10;;;;;;5045355;28;20021;-67
2023/11/30 00:22:55;;;;;;;2.70;2.03;;;28.50;99.70;;;;;;5045320;28;20030;-67
2023/11/30 00:25:22;;;;;;;1.75;1.27;;;28.90;99.20;;;;;;5045511;28;20089;-64
2023/11/30 00:27:49;;;;;;;2.45;1.10;;;29.30;99.80;;;;;;5041474;28;20041;-65
2023/11/30 00:30:16;;;;;;;1.85;1.10;;;29.60;99.50;;;;;;5044325;28;20028;-65
2023/11/30 00:32:43;;;;;;;6.03;1.20;;;29.90;99.70;;;;;;5046331;28;20033;-66
2023/11/30 00:35:13;;;;;;;1.02;0.70;;;30.00;98.30;;;;;;5045392;28;20049;-65
2023/11/30 00:37:40;;;;;;;5.20;1.63;;;30.10;97.90;;;;;;5044352;28;20061;-64
2023/11/30 00:40:08;;;;;;;1.63;0.70;;;30.60;96.80;;;;;;5049003;23;20102;-65
2023/11/30 00:42:35;;;;;;;2.15;0.88;;;30.30;97.00;;;;;;5044375;28;20029;-64
2023/11/30 00:45:02;;;;;;;1.60;0.80;;;29.70;96.60;;;;;;5040074;28;20029;-64
2023/11/30 00:47:29;;;;;;;3.63;1.08;;;29.10;97.10;;;;;;5036796;28;20108;-64
2023/11/30 00:49:56;;;;;;;3.60;0.95;;;28.60;97.70;;;;;;5039287;28;20086;-64
2023/11/30 00:52:22;;;;;;;1.92;1.08;;;28.30;98.40;;;;;;5043429;28;20411;-64
2023/11/30 00:54:49;;;;;;;2.63;0.68;;;28.20;98.60;;;;;;5042396;28;20036;-65
2023/11/30 00:57:16;;;;;;;3.17;1.05;;;28.30;98.50;;;;;;5039489;28;20025;-65
2023/11/30 00:59:43;;;;;;;3.35;1.10;;;28.80;97.40;;;;;;5041205;28;20022;-63
2023/11/30 01:02:10;;;;;;;4.25;1.83;;;29.30;98.00;;;;;;5042105;28;20029;-63
2023/11/30 01:04:42;;;;;;;1.83;0.93;;;29.70;97.60;;;;;;5042982;28;20104;-64
2023/11/30 01:07:09;;;;;;;3.38;0.73;;;29.90;96.90;;;;;;5036461;28;20025;-63
2023/11/30 01:09:38;;;;;;;2.28;0.60;;;29.90;96.80;;;;;;5041594;28;20687;-64
2023/11/30 01:12:06;;;;;;;0.70;0.52;;;29.70;96.80;;;;;;5042687;28;20025;-64
2023/11/30 01:14:33;;;;;;;1.80;0.60;;;29.50;95.90;;;;;;5041172;28;20095;-64
2023/11/30 01:17:00;;;;;;;1.98;1.77;;;29.70;96.70;;;;;;5040987;28;20017;-62
2023/11/30 01:19:27;;;;;;;1.33;1.20;;;30.40;96.80;;;;;;5045764;28;20021;-63
2023/11/30 01:21:54;;;;;;;0.93;0.60;;;31.10;95.60;;;;;;5047078;28;20021;-64
2023/11/30 01:24:21;;;;;;;2.03;1.00;;;31.60;95.10;;;;;;5044887;28;20057;-64
2023/11/30 01:26:48;;;;;;;1.27;0.65;;;31.90;93.80;;;;;;5041633;28;20108;-65
2023/11/30 01:29:15;;;;;;;1.38;0.60;;;31.40;94.20;;;;;;5014453;28;20147;-65
2023/11/30 01:31:43;;;;;;;1.63;0.70;;;31.40;94.50;;;;;;5041434;28;20030;-64
2023/11/30 01:34:10;;;;;;;0.85;0.40;;;31.30;93.80;;;;;;5047829;28;20082;-64
2023/11/30 01:36:37;;;;;;;1.42;0.50;;;30.50;94.30;;;;;;5030863;28;20028;-66
2023/11/30 01:39:04;;;;;;;0.32;0.32;;;30.00;95.30;;;;;;5042384;28;20826;-64
2023/11/30 01:41:31;;;;;;;1.58;0.20;;;30.20;95.20;;;;;;5046445;28;20021;-63
2023/11/30 01:43:58;;;;;;;0.55;0.30;;;30.90;94.30;;;;;;5047887;28;20025;-63
2023/11/30 01:46:25;;;;;;;0.30;0.30;;;31.40;93.50;;;;;;5042344;28;20036;-64
2023/11/30 01:48:52;;;;;;;0.57;0.57;;;31.80;94.20;;;;;;5045265;28;20025;-66
2023/11/30 01:51:19;;;;;;;1.80;1.35;;;31.70;93.10;;;;;;5045690;28;20021;-66
2023/11/30 01:53:46;;;;;;;1.17;0.55;;;31.60;93.90;;;;;;5042985;28;20037;-64
2023/11/30 01:56:15;;;;;;;0.40;0.30;;;32.20;93.30;;;;;;5047010;28;20082;-65
2023/11/30 01:58:42;;;;;;;0.40;0.20;;;32.10;92.90;;;;;;5045548;28;20021;-63
2023/11/30 02:01:11;;;;;;;0.75;0.20;;;31.30;92.90;;;;;;5038972;28;20025;-67
2023/11/30 02:03:39;;;;;;;0.93;0.40;;;30.70;93.10;;;;;;5043528;28;20021;-63
2023/11/30 02:06:06;;;;;;;1.65;0.40;;;29.70;93.40;;;;;;5041227;28;20055;-62
2023/11/30 02:08:33;;;;;;;0.13;0.13;;;28.90;94.50;;;;;;5045431;28;20028;-64
2023/11/30 02:11:00;;;;;;;0.85;0.22;;;28.60;95.20;;;;;;5047635;28;20048;-65
2023/11/30 02:13:27;;;;;;;0.40;0.30;;;28.50;95.20;;;;;;5044475;28;20025;-65
2023/11/30 02:15:54;;;;;;;0.10;0.10;;;28.40;95.20;;;;;;5044341;28;20029;-61
2023/11/30 02:18:21;;;;;;;0.20;0.20;;;28.30;95.60;;;;;;5047583;28;20076;-63
2023/11/30 02:20:48;;;;;;;1.02;0.10;;;28.40;95.70;;;;;;5046909;28;20021;-61
2023/11/30 02:23:15;;;;;;;0.30;0.13;;;28.60;95.70;;;;;;5046272;28;20029;-64
2023/11/30 02:25:42;;;;;;;0.20;0.20;;;28.80;95.00;;;;;;5041383;28;20017;-65
2023/11/30 02:28:09;;;;;;;0.38;0.22;;;29.00;95.60;;;;;;5037798;28;20041;-60
2023/11/30 02:30:37;;;;;;;0.70;0.28;;;29.00;95.20;;;;;;5042512;28;20021;-62
2023/11/30 02:33:04;;;;;;;0.20;0.10;;;28.80;94.90;;;;;;5041835;28;20174;-68
2023/11/30 02:35:31;;;;;;;0.40;0.20;;;28.50;95.90;;;;;;5040811;28;20028;-63
2023/11/30 02:37:58;;;;;;;0.20;0.17;;;28.20;96.40;;;;;;5044560;28;20029;-62
2023/11/30 02:40:24;;;;;;;0.22;0.10;;;28.10;96.30;;;;;;5043359;28;20082;-67
2023/11/30 02:42:51;;;;;;;1.30;0.20;;;28.30;96.40;;;;;;5046112;28;20044;-67
2023/11/30 02:45:18;;;;;;;0.32;0.20;;;29.10;95.60;;;;;;5046268;28;20124;-67
2023/11/30 02:47:45;;;;;;;0.40;0.40;;;30.00;95.20;;;;;;5046723;28;20505;-67
2023/11/30 02:50:12;;;;;;;0.10;0.10;;;30.20;94.70;;;;;;5045423;28;20024;-66
2023/11/30 02:52:39;;;;;;;0.73;0.30;;;30.40;94.40;;;;;;5044021;28;20051;-68
2023/11/30 02:55:07;;;;;;;0.80;0.43;;;30.50;94.40;;;;;;5041289;28;20067;-64
2023/11/30 02:57:34;;;;;;;2.33;0.90;;;31.10;93.90;;;;;;5043954;28;20021;-62
2023/11/30 03:00:01;;;;;;;1.83;0.65;;;31.30;93.20;;;;;;5042516;28;20029;-64
2023/11/30 03:02:28;;;;;;;0.88;0.28;;;30.90;93.10;;;;;;5042800;28;20037;-64
2023/11/30 03:04:55;;;;;;;0.80;0.43;;;30.30;93.10;;;;;;5046344;28;20025;-61
2023/11/30 03:07:22;;;;;;;1.10;0.38;;;29.80;93.10;;;;;;5046224;28;20021;-68
2023/11/30 03:09:49;;;;;;;0.88;0.30;;;29.50;94.20;;;;;;5047381;28;20070;-68
2023/11/30 03:12:16;;;;;;;0.82;0.30;;;28.90;93.70;;;;;;5046103;28;20182;-67
2023/11/30 03:14:46;;;;;;;0.20;0.17;;;28.50;94.00;;;;;;5028942;28;20550;-66
2023/11/30 03:17:13;;;;;;;0.95;0.17;;;28.20;95.10;;;;;;5045567;28;20017;-66
2023/11/30 03:19:42;;;;;;;1.75;0.40;;;28.10;94.60;;;;;;5046688;28;20025;-62
2023/11/30 03:22:09;;;;;;;1.15;0.40;;;28.10;94.90;;;;;;5045771;28;20111;-63
2023/11/30 03:24:36;;;;;;;2.25;0.32;;;28.00;94.70;;;;;;5043238;28;20041;-67
2023/11/30 03:27:03;;;;;;;1.02;0.30;;;28.30;95.10;;;;;;5046636;28;20025;-62
2023/11/30 03:29:30;;;;;;;0.25;0.13;;;28.70;95.00;;;;;;5042369;28;20948;-62
2023/11/30 03:31:57;;;;;;;0.43;0.15;;;29.40;94.80;;;;;;5044142;28;20037;-64
2023/11/30 03:34:24;;;;;;;1.77;0.30;;;29.50;94.10;;;;;;5047354;28;20087;-64
2023/11/30 03:36:51;;;;;;;2.95;0.30;;;29.80;94.10;;;;;;5046436;28;20071;-63
2023/11/30 03:39:18;;;;;;;0.50;0.30;;;29.70;93.80;;;;;;5045357;28;20088;-62
2023/11/30 03:41:45;;;;;;;0.52;0.10;;;29.20;93.60;;;;;;5047033;28;20040;-69
2023/11/30 03:44:12;;;;;;;1.55;0.25;;;28.70;93.80;;;;;;5045852;28;20111;-66
2023/11/30 03:46:39;;;;;;;0.35;0.20;;;28.60;94.20;;;;;;5046041;28;20512;-69
2023/11/30 03:49:06;;;;;;;1.50;0.30;;;28.40;94.10;;;;;;5045937;28;20112;-69
2023/11/30 03:51:33;;;;;;;0.77;0.32;;;28.10;94.30;;;;;;5045659;28;20025;-63
2023/11/30 03:54:00;;;;;;;0.20;0.20;;;27.90;94.00;;;;;;5045293;28;20044;-68
2023/11/30 03:56:30;;;;;;;0.20;0.13;;;28.00;94.20;;;;;;5041227;28;20040;-69
2023/11/30 03:58:57;;;;;;;0.10;0.10;;;27.80;94.30;;;;;;5046522;28;20044;-61
2023/11/30 04:01:24;;;;;;;0.30;0.10;;;27.70;94.60;;;;;;5045839;28;20519;-63
2023/11/30 04:03:51;;;;;;;0.50;0.30;;;27.70;94.90;;;;;;5046384;28;20125;-67
2023/11/30 04:06:20;;;;;;;0.40;0.20;;;27.90;94.80;;;;;;5046866;28;20036;-62
2023/11/30 04:08:47;;;;;;;0.15;0.15;;;27.90;94.30;;;;;;5045473;28;20033;-64
2023/11/30 04:11:18;;;;;;;0.20;0.20;;;27.80;94.70;;;;;;5025939;28;20283;-63
2023/11/30 04:13:46;;;;;;;0.85;0.20;;;27.70;94.70;;;;;;5044142;28;20123;-62
2023/11/30 04:16:17;;;;;;;0.73;0.35;;;27.60;94.80;;;;;;5046268;28;20499;-67
2023/11/30 04:18:45;;;;;;;0.38;0.20;;;27.50;95.20;;;;;;5050570;28;21518;-70
2023/11/30 04:21:12;;;;;;;1.17;0.50;;;27.40;95.40;;;;;;5046784;28;20029;-69
2023/11/30 04:23:39;;;;;;;1.85;0.30;;;27.30;95.30;;;;;;5050797;28;20491;-67
2023/11/30 04:26:06;;;;;;;0.28;0.20;;;27.30;95.50;;;;;;5046235;28;20033;-69
2023/11/30 04:28:33;;;;;;;1.63;0.20;;;27.10;95.70;;;;;;5044846;28;20033;-70
2023/11/30 04:31:00;;;;;;;0.57;0.20;;;27.10;95.70;;;;;;5046292;28;20029;-64
2023/11/30 04:33:27;;;;;;;0.82;0.30;;;27.10;95.90;;;;;;5048276;28;20502;-69
2023/11/30 04:35:55;;;;;;;1.20;0.32;;;27.80;95.20;;;;;;5046597;28;20718;-65
2023/11/30 04:38:22;;;;;;;1.95;0.20;;;28.30;95.00;;;;;;5044055;28;20035;-69
2023/11/30 04:40:49;;;;;;;0.38;0.10;;;29.00;94.90;;;;;;5052443;28;20037;-69
2023/11/30 04:43:16;;;;;;;1.55;0.15;;;29.00;94.10;;;;;;5048405;28;20044;-64
2023/11/30 04:45:43;;;;;;;1.55;0.20;;;28.80;94.20;;;;;;5048934;28;20036;-64
2023/11/30 04:48:10;;;;;;;0.47;0.10;;;29.00;94.30;;;;;;5046667;28;20040;-64
2023/11/30 04:50:36;;;;;;;2.20;0.22;;;29.20;94.30;;;;;;5050555;28;20053;-68
2023/11/30 04:53:03;;;;;;;0.95;0.30;;;29.80;94.00;;;;;;5045125;28;20065;-69
2023/11/30 04:55:30;;;;;;;1.85;0.10;;;30.40;93.60;;;;;;5048023;28;20107;-70
2023/11/30 04:57:57;;;;;;;0.10;0.10;;;30.30;92.70;;;;;;5046553;28;20032;-70
2023/11/30 05:00:24;;;;;;;0.15;0.10;;;30.00;93.30;;;;;;5048892;28;20035;-78
2023/11/30 05:02:53;;;;;;;0.80;0.20;;;30.30;93.10;;;;;;5048697;28;20052;-71
2023/11/30 05:05:21;;;;;;;0.75;0.25;;;30.80;92.90;;;;;;5045187;28;20029;-69
2023/11/30 05:07:48;;;;;;;0.22;0.22;;;31.30;92.60;;;;;;5048089;28;20535;-73
2023/11/30 05:10:15;;;;;;;0.28;0.28;;;31.30;92.30;;;;;;5047508;28;20029;-64
2023/11/30 05:12:42;;;;;;;0.45;0.15;;;31.60;92.00;;;;;;5043693;28;20029;-71
2023/11/30 05:15:09;;;;;;;1.75;0.22;;;31.80;92.40;;;;;;5049189;28;20467;-72
2023/11/30 05:17:36;;;;;;;0.10;0.10;;;31.80;90.90;;;;;;5046034;28;20021;-67
2023/11/30 05:20:04;;;;;;;0.13;0.10;;;32.00;90.30;;;;;;5044343;28;20108;-66
2023/11/30 05:22:31;;;;;;;0.63;0.20;;;32.10;90.20;;;;;;5050725;28;20104;-64
2023/11/30 05:24:58;;;;;;;0.35;0.17;;;31.90;90.40;;;;;;5046200;28;20031;-67
2023/11/30 05:27:25;;;;;;;0.55;0.35;;;31.60;90.60;;;;;;5048555;28;20035;-67
2023/11/30 05:29:52;;;;;;;2.63;0.40;;;30.70;91.30;;;;;;5045619;28;20028;-67
2023/11/30 05:32:21;;;;;;;1.92;0.20;;;30.10;91.50;;;;;;5040619;28;20075;-67
2023/11/30 05:34:49;;;;;;;2.25;0.30;;;29.40;92.10;;;;;;5040210;28;20052;-65
2023/11/30 05:37:16;;;;;;;1.30;0.50;;;29.30;92.40;;;;;;5037566;28;20392;-62
2023/11/30 05:39:43;;;;;;;1.52;0.40;;;29.20;92.30;;;;;;5038716;28;20033;-66
2023/11/30 05:42:10;;;;;;;1.20;0.90;;;29.10;92.40;;;;;;5039147;28;20201;-66
2023/11/30 05:44:38;;;;;;;2.05;1.38;;;28.80;92.80;;;;;;5039617;28;20028;-65
2023/11/30 05:47:05;;;;;;;2.15;0.60;;;28.90;92.30;;;;;;5039298;28;20812;-67
2023/11/30 05:49:32;;;;;;;1.70;0.68;;;28.90;92.40;;;;;;5038268;28;20100;-67
2023/11/30 05:51:59;;;;;;;0.55;0.40;;;29.00;92.40;;;;;;5028150;28;20025;-64
2023/11/30 05:54:26;;;;;;;2.30;1.73;;;28.80;92.20;;;;;;5037639;28;20830;-66
2023/11/30 05:56:53;;;;;;;0.88;0.80;;;28.80;92.50;;;;;;5036780;28;20025;-63
2023/11/30 05:59:20;;;;;;;0.68;0.63;;;28.80;92.20;;;;;;5038027;28;20024;-66
2023/11/30 06:01:47;;;;;;;0.35;0.30;;;29.60;91.90;;;;;;5037658;28;20039;-62
2023/11/30 06:04:14;;;;;;;0.10;0.10;;;30.60;90.80;;;;;;5039948;28;20024;-66
2023/11/30 06:06:41;;;;;;;0.30;0.10;;;30.30;90.60;;;;;;5042594;28;20407;-64
2023/11/30 06:09:08;;;;;;;0.10;0.10;;;30.20;90.60;;;;;;5042187;28;20053;-66
2023/11/30 06:11:36;;;;;;;0.10;0.10;;;31.40;90.40;;;;;;5040747;28;21314;-65
2023/11/30 06:14:03;;;;;;;0.55;0.20;;;31.00;90.10;;;;;;5025880;28;20032;-66
2023/11/30 06:16:30;;;;;;;1.75;0.30;;;30.80;90.30;;;;;;5042081;28;20025;-65
2023/11/30 06:18:57;;;;;;;0.55;0.28;;;30.30;90.40;;;;;;5040736;28;20017;-71
2023/11/30 06:21:24;;;;;;;1.10;0.82;;;29.80;90.70;;;;;;5040321;28;20031;-69
2023/11/30 06:23:50;;;;;;;0.20;0.15;;;29.40;91.10;;;;;;5040650;28;20089;-69
2023/11/30 06:26:18;;;;;;;1.33;0.30;;;29.10;91.30;;;;;;5038336;28;20121;-69
2023/11/30 06:28:45;;;;;;;1.52;0.90;;;28.90;91.30;;;;;;5040467;28;20026;-65
2023/11/30 06:31:15;;;;;;;0.90;0.68;;;28.50;91.90;;;;;;5039795;28;20036;-66
2023/11/30 06:33:43;;;;;;;1.73;0.60;;;29.30;91.60;;;;;;5023179;28;20761;-70
2023/11/30 06:36:10;;;;;;;0.28;0.20;;;29.90;90.80;;;;;;5039239;28;20020;-72
2023/11/30 06:38:37;;;;;;;0.82;0.25;;;29.60;91.10;;;;;;5039805;28;20816;-65
2023/11/30 06:41:11;;;;;;;2.13;0.10;;;29.20;91.20;;;;;;5043409;28;20055;-69
2023/11/30 06:43:39;;;;;;;0.88;0.20;;;29.70;91.20;;;;;;5046655;28;20083;-66
2023/11/30 06:46:06;;;;;;;0.43;0.20;;;29.30;91.50;;;;;;5024002;28;20030;-66
2023/11/30 06:48:33;;;;;;;0.68;0.20;;;29.10;91.90;;;;;;5041730;28;20029;-70
2023/11/30 06:51:00;;;;;;;1.77;0.35;;;29.00;91.80;;;;;;5024498;28;20655;-70
2023/11/30 06:53:27;;;;;;;1.52;0.30;;;29.50;91.90;;;;;;5041286;28;20025;-71
2023/11/30 06:55:53;;;;;;;0.25;0.13;;;30.50;91.20;;;;;;5041249;28;20017;-66
2023/11/30 06:58:20;;;;;;;0.47;0.40;;;31.20;90.40;;;;;;5042275;28;20633;-66
2023/11/30 07:00:49;;;;;;;0.65;0.20;;;31.10;90.30;;;;;;5041183;28;20028;-66
2023/11/30 07:03:15;;;;;;;0.30;0.30;;;30.50;90.90;;;;;;5042913;28;20025;-70
2023/11/30 07:05:42;;;;;;;0.50;0.25;;;30.00;91.00;;;;;;5041436;28;20025;-69
2023/11/30 07:08:09;;;;;;;2.50;0.55;;;29.40;91.90;;;;;;5050673;28;20020;-65
2023/11/30 07:10:36;;;;;;;1.42;0.30;;;29.10;93.00;;;;;;5046209;28;20119;-65
2023/11/30 07:13:03;;;;;;;4.45;0.40;;;28.70;94.20;;;;;;5048059;28;20029;-65
2023/11/30 07:15:30;;;;;;;1.70;0.50;;;28.50;94.50;;;;;;5047175;28;20028;-72
2023/11/30 07:17:57;;;;;;;2.00;0.60;;;28.30;95.10;;;;;;5047909;28;20024;-65
2023/11/30 07:20:24;;;;;;;6.43;0.90;;;28.20;95.10;;;;;;5045843;28;20075;-65
2023/11/30 07:22:51;;;;;;;5.15;0.73;;;28.10;94.70;;;;;;5046947;28;20032;-72
2023/11/30 07:25:18;;;;;;;0.93;0.40;;;28.00;94.70;;;;;;5048247;28;20029;-70
2023/11/30 07:27:45;;;;;;;4.40;0.30;;;28.90;93.90;;;;;;5051922;28;20029;-71
2023/11/30 07:30:12;;;;;;;3.63;0.30;;;29.10;93.50;;;;;;5047771;28;20032;-72
2023/11/30 07:32:39;;;;;;;2.22;0.32;;;29.30;93.80;;;;;;5051183;28;20034;-72
2023/11/30 07:35:07;;;;;;;1.75;0.20;;;29.10;92.40;;;;;;5046601;28;20071;-73
2023/11/30 07:37:34;;;;;;;0.40;0.20;;;28.90;92.40;;;;;;5043259;28;20075;-71
2023/11/30 07:40:01;;;;;;;0.40;0.25;;;29.80;92.20;;;;;;5050675;28;20045;-72
2023/11/30 07:42:28;;;;;;;1.33;0.60;;;30.30;91.80;;;;;;5050684;28;20487;-73
2023/11/30 07:44:55;;;;;;;0.38;0.28;;;30.50;91.00;;;;;;5044461;28;20033;-65
2023/11/30 07:47:22;;;;;;;5.03;0.82;;;30.40;91.00;;;;;;5048976;28;20116;-69
2023/11/30 07:49:49;;;;;;;4.72;2.33;;;29.80;91.30;;;;;;5055348;28;20028;-68
2023/11/30 07:52:17;;;;;;;1.80;0.60;;;29.10;92.10;;;;;;5050972;28;20028;-68
2023/11/30 07:54:44;;;;;;;3.03;0.85;;;28.70;92.30;;;;;;5050799;28;20028;-65
2023/11/30 07:57:11;;;;;;;1.63;0.38;;;28.40;92.90;;;;;;5042927;28;20024;-67
2023/11/30 07:59:38;;;;;;;1.83;0.65;;;28.00;94.00;;;;;;5042074;28;20100;-69
2023/11/30 08:02:07;;;;;;;0.93;0.50;;;27.70;93.40;;;;;;5042207;28;20032;-65
2023/11/30 08:04:36;;;;;;;1.23;0.57;;;27.50;93.30;;;;;;5040580;28;20112;-74
2023/11/30 08:07:04;;;;;;;1.90;0.50;;;27.30;93.60;;;;;;5039680;28;20029;-67
2023/11/30 08:09:31;;;;;;;1.17;0.77;;;27.20;93.80;;;;;;5039455;28;20089;-67
2023/11/30 08:11:58;;;;;;;1.63;0.60;;;26.90;94.70;;;;;;5043864;28;20033;-67
2023/11/30 08:14:25;;;;;;;3.35;0.63;;;26.70;95.30;;;;;;5041364;28;20029;-66
2023/11/30 08:16:52;;;;;;;1.52;0.75;;;26.60;96.60;;;;;;5037636;28;20987;-66
2023/11/30 08:19:19;;;;;;;3.70;0.63;;;26.40;97.50;;;;;;5036775;28;20036;-65
2023/11/30 08:21:47;;;;;;;2.55;0.60;;;26.20;98.10;;;;;;5036955;28;20070;-66
2023/11/30 08:24:15;;;;;;;0.90;0.60;;;26.00;98.50;;;;;;5036811;28;20032;-67
2023/11/30 08:26:42;;;;;;;3.05;0.55;;;25.90;99.00;;;;;;5036949;28;20017;-67
2023/11/30 08:29:09;;;;;;;1.15;0.38;;;25.70;99.50;;;;;;5038331;28;20039;-65
2023/11/30 08:31:36;;;;;;;1.95;0.60;;;25.60;99.70;;;;;;5037272;28;20029;-64
2023/11/30 08:34:03;;;;;;;3.67;0.82;;;25.50;99.90;;;;;;5038428;28;20463;-65
2023/11/30 08:36:30;;;;;;;2.22;1.63;;;25.50;99.80;;;;;;5037130;28;20114;-65
2023/11/30 08:38:57;;;;;;;2.45;1.05;;;25.40;99.90;;;;;;5037291;28;20191;-67
2023/11/30 08:41:24;;;;;;;4.90;1.15;;;25.30;99.90;;;;;;5035998;28;20029;-64
2023/11/30 08:43:51;;;;;;;2.15;0.73;;;25.40;98.90;;;;;;5035097;28;20028;-67
2023/11/30 08:46:18;;;;;;;7.38;0.70;;;25.40;99.00;;;;;;5035628;28;20024;-64
2023/11/30 08:48:46;;;;;;;0.90;0.43;;;25.60;97.90;;;;;;5036362;28;20513;-65
2023/11/30 08:51:13;;;;;;;2.25;0.25;;;25.60;97.40;;;;;;5033952;28;20028;-67
2023/11/30 08:53:41;;;;;;;1.80;0.57;;;25.60;97.30;;;;;;5035344;28;20896;-68
2023/11/30 08:56:08;;;;;;;0.52;0.28;;;25.60;97.30;;;;;;5034692;28;20029;-67
2023/11/30 08:58:35;;;;;;;1.73;0.40;;;25.60;97.20;;;;;;5034374;28;20928;-66
2023/11/30 09:01:03;;;;;;;2.90;0.38;;;25.50;97.30;;;;;;5035052;28;20203;-67
2023/11/30 09:03:30;;;;;;;1.75;0.88;;;25.50;97.40;;;;;;5034471;28;20033;-68
2023/11/30 09:05:57;;;;;;;1.25;0.20;;;25.60;97.60;;;;;;5036174;28;20120;-70
2023/11/30 09:08:24;;;;;;;2.65;0.60;;;25.60;97.10;;;;;;5033319;28;20750;-67
2023/11/30 09:10:51;;;;;;;5.97;0.82;;;25.50;97.10;;;;;;5038090;28;20084;-65
2023/11/30 09:13:18;;;;;;;6.82;3.33;;;25.50;97.10;;;;;;5025913;28;20063;-67
2023/11/30 09:15:45;;;;;;;7.13;1.20;;;25.40;96.90;;;;;;5018860;28;20067;-69
2023/11/30 09:18:12;;;;;;;3.15;0.40;;;25.30;96.90;;;;;;5035520;28;20056;-66
2023/11/30 09:20:39;;;;;;;0.93;0.38;;;25.30;97.30;;;;;;5034817;28;20056;-68
2023/11/30 09:23:06;;;;;;;0.47;0.35;;;25.00;99.30;;;;;;5038390;28;20099;-68
2023/11/30 09:25:33;;;;;;;0.60;0.40;;;24.70;99.90;;;;;;5036601;28;20205;-68
2023/11/30 09:28:00;;;;;;;1.83;0.50;;;24.50;99.90;;;;;;5035787;28;20635;-68
2023/11/30 09:30:27;;;;;;;2.67;0.30;;;24.30;99.90;;;;;;5036515;28;20062;-68
2023/11/30 09:32:54;;;;;;;1.30;0.40;;;24.10;99.90;;;;;;5044655;28;20029;-64
2023/11/30 09:35:21;;;;;;;0.75;0.43;;;23.90;99.90;;;;;;5040483;28;20037;-64
2023/11/30 09:37:48;;;;;;;0.57;0.20;;;23.70;99.90;;;;;;5043237;28;20030;-68
2023/11/30 09:40:15;;;;;;;1.33;0.30;;;23.40;99.90;;;;;;5040960;28;20085;-65
2023/11/30 09:42:42;;;;;;;0.63;0.30;;;23.10;99.90;;;;;;5051199;28;20526;-69
2023/11/30 09:45:10;;;;;;;0.60;0.38;;;23.00;99.90;;;;;;5050929;28;20061;-65
2023/11/30 09:47:36;;;;;;;0.98;0.30;;;22.80;99.90;;;;;;5049145;28;20733;-65
2023/11/30 09:50:04;;;;;;;0.57;0.30;;;22.80;99.90;;;;;;5047348;28;20067;-66
2023/11/30 09:52:31;;;;;;;0.85;0.57;;;22.70;99.90;;;;;;5053187;28;20021;-68
2023/11/30 09:54:59;;;;;;;1.23;0.55;;;22.70;99.90;;;;;;5047310;28;20033;-66
2023/11/30 09:57:26;;;;;;;1.15;0.60;;;22.70;99.90;;;;;;5049936;28;20029;-65
2023/11/30 09:59:54;;;;;;;1.17;0.50;;;22.60;99.90;;;;;;5045260;28;20376;-67
2023/11/30 10:02:25;;;;;;;4.57;0.80;;;22.60;99.90;;;;;;5046217;28;20077;-66
2023/11/30 10:04:52;;;;;;;5.85;0.88;;;22.60;99.90;;;;;;5053101;28;20017;-64
2023/11/30 10:07:20;;;;;;;3.20;0.60;;;22.60;99.90;;;;;;5051361;28;20032;-67
2023/11/30 10:09:47;;;;;;;2.53;0.60;;;22.80;99.90;;;;;;5047755;28;20034;-70
2023/11/30 10:12:18;;;;;;;1.10;0.40;;;23.00;99.90;;;;;;5040089;28;20039;-68
2023/11/30 10:14:46;;;;;;;0.38;0.30;;;22.90;99.90;;;;;;5046357;28;20029;-69
2023/11/30 10:17:13;;;;;;;2.15;0.47;;;22.90;99.90;;;;;;5047683;28;20075;-68
2023/11/30 10:19:40;;;;;;;0.80;0.28;;;22.70;99.90;;;;;;5046352;28;20041;-69
2023/11/30 10:22:07;;;;;;;0.30;0.30;;;22.60;99.90;;;;;;5047984;28;20052;-69
2023/11/30 10:24:34;;;;;;;1.50;0.30;;;22.50;99.90;;;;;;5047478;28;20029;-70
2023/11/30 10:27:06;;;;;;;1.92;0.30;;;22.30;99.90;;;;;;5044311;28;20060;-66
2023/11/30 10:29:36;;;;;;;0.80;0.47;;;22.30;99.90;;;;;;5040762;28;20033;-67
2023/11/30 10:32:06;;;;;;;2.90;1.50;;;22.20;99.90;;;;;;5042413;28;20040;-64
2023/11/30 10:34:40;;;;;;;7.75;6.55;;;22.30;99.90;;;;;;5040615;28;20021;-70
2023/11/30 10:37:09;;;;;;;3.20;2.53;;;22.10;99.90;;;;;;5045879;28;20025;-66
2023/11/30 10:39:40;;;;;;;1.00;0.50;;;22.00;99.90;;;;;;5045389;28;20041;-69
2023/11/30 10:42:13;;;;;;;1.05;0.60;;;21.90;99.90;;;;;;5048384;28;20029;-65
2023/11/30 10:44:43;;;;;;;0.70;0.60;;;21.80;99.90;;;;;;5049953;28;20026;-67
2023/11/30 10:47:11;;;;;;;3.28;0.75;;;21.60;99.90;;;;;;5045628;28;20434;-66
2023/11/30 10:49:41;;;;;;;0.40;0.40;;;21.50;99.90;;;;;;5041335;28;20031;-63
2023/11/30 10:52:09;;;;;;;1.67;0.50;;;21.40;99.90;;;;;;5041857;28;20091;-65
2023/11/30 10:54:39;;;;;;;1.27;0.57;;;21.40;99.90;;;;;;5041768;28;21572;-66
2023/11/30 10:57:07;;;;;;;2.20;0.63;;;21.40;99.90;;;;;;5041856;28;20036;-65
2023/11/30 10:59:34;;;;;;;1.88;0.93;;;21.40;99.90;;;;;;5043134;28;20040;-66
2023/11/30 11:02:05;;;;;;;3.05;0.70;;;21.50;99.90;;;;;;5042395;28;20036;-67
2023/11/30 11:04:32;;;;;;;2.15;0.95;;;21.50;99.90;;;;;;5044191;28;20029;-68
2023/11/30 11:07:08;;;;;;;2.60;1.15;;;21.50;99.90;;;;;;5031634;28;20074;-66
2023/11/30 11:09:54;;;;;;;4.63;2.70;;;21.50;99.90;;;;;;5051798;28;20047;-66
2023/11/30 11:12:25;;;;;;;3.45;1.25;;;21.40;99.90;;;;;;5053179;28;20060;-66
2023/11/30 11:15:12;;;;;;;2.40;1.10;;;21.30;99.90;;;;;;5055670;28;20411;-66
2023/11/30 11:17:48;;;;;;;3.35;1.25;;;21.20;99.90;;;;;;5054904;28;20024;-65
2023/11/30 11:20:23;;;;;;;3.55;1.40;;;21.10;99.90;;;;;;5054956;28;20063;-67
2023/11/30 11:23:09;;;;;;;3.53;2.15;;;21.10;99.90;;;;;;5055754;28;20028;-65
2023/11/30 11:25:40;;;;;;;4.25;1.40;;;21.10;99.90;;;;;;5045774;28;20632;-65
2023/11/30 11:28:08;;;;;;;1.70;1.17;;;21.00;99.90;;;;;;5043818;28;20028;-66
2023/11/30 11:30:44;;;;;;;3.75;1.40;;;20.90;99.90;;;;;;5051340;28;20036;-67
2023/11/30 11:33:11;;;;;;;3.35;1.92;;;20.90;99.90;;;;;;5045371;28;21142;-68
2023/11/30 11:35:38;;;;;;;2.53;1.13;;;20.90;99.90;;;;;;5045148;28;20028;-68
2023/11/30 11:38:06;;;;;;;3.20;1.10;;;20.90;99.90;;;;;;5042955;28;20016;-66
2023/11/30 11:40:33;;;;;;;3.55;1.35;;;20.90;99.90;;;;;;5042636;28;20056;-67
2023/11/30 11:43:00;;;;;;;3.28;1.50;;;20.90;99.90;;;;;;5043781;28;20056;-66
2023/11/30 11:45:27;;;;;;;3.00;1.60;;;20.90;99.90;;;;;;5044201;28;20888;-70
2023/11/30 11:47:54;;;;;;;3.00;1.35;;;20.80;99.90;;;;;;5046313;28;20393;-69
2023/11/30 11:50:21;;;;;;;4.75;2.05;;;20.80;99.90;;;;;;5043312;28;20025;-69
2023/11/30 11:52:49;;;;;;;2.78;1.65;;;20.80;99.90;;;;;;5050805;28;20060;-67
2023/11/30 11:55:16;;;;;;;3.97;1.58;;;20.60;99.90;;;;;;5048452;28;20035;-69
2023/11/30 11:57:45;;;;;;;6.72;1.60;;;20.60;99.90;;;;;;5038719;28;20057;-67
2023/11/30 12:00:15;;;;;;;3.55;1.40;;;20.50;99.90;;;;;;5048291;28;20027;-67
2023/11/30 12:02:42;;;;;;;2.83;1.27;;;20.50;99.90;;;;;;5047488;28;20029;-67
2023/11/30 12:05:13;;;;;;;2.03;0.90;;;20.60;99.90;;;;;;5044928;28;20377;-67
2023/11/30 12:07:51;;;;;;;2.28;1.10;;;20.50;99.90;;;;;;5045590;28;20021;-67
2023/11/30 12:10:40;;;;;;;3.80;1.05;;;20.40;99.90;;;;;;5041435;28;20036;-68
2023/11/30 12:13:09;;;;;;;2.00;0.98;;;20.30;99.90;;;;;;5042292;28;20039;-66
2023/11/30 12:15:37;;;;;;;5.00;1.02;;;20.30;99.90;;;;;;5047347;28;20013;-68
2023/11/30 12:18:04;;;;;;;1.83;1.05;;;20.20;99.90;;;;;;5044929;28;20498;-65
2023/11/30 12:20:31;;;;;;;4.78;1.15;;;20.10;99.90;;;;;;5042557;28;20036;-67
2023/11/30 12:22:58;;;;;;;2.53;1.48;;;20.10;99.90;;;;;;5045628;28;20029;-66
2023/11/30 12:25:25;;;;;;;2.72;1.10;;;20.10;99.90;;;;;;5050007;28;20037;-64
2023/11/30 12:27:52;;;;;;;4.70;1.33;;;20.00;99.90;;;;;;5046062;28;20028;-65
2023/11/30 12:30:19;;;;;;;3.60;1.25;;;20.00;99.90;;;;;;5046058;28;20727;-64
2023/11/30 12:32:47;;;;;;;2.38;0.90;;;19.90;99.90;;;;;;5042919;28;20025;-65
2023/11/30 12:35:14;;;;;;;2.95;1.10;;;19.80;99.90;;;;;;5033762;28;20652;-67
2023/11/30 12:37:41;;;;;;;2.35;1.00;;;19.60;99.90;;;;;;5046358;28;20021;-66
2023/11/30 12:40:09;;;;;;;3.25;1.60;;;19.50;99.90;;;;;;5037608;23;20061;-63
2023/11/30 12:42:36;;;;;;;4.18;1.20;;;19.40;99.90;;;;;;5027881;28;20037;-67
2023/11/30 12:45:04;;;;;;;3.97;1.30;;;19.30;99.90;;;;;;5024589;28;20018;-63
2023/11/30 12:47:32;;;;;;;2.67;1.40;;;19.30;99.90;;;;;;5025035;28;20025;-64
2023/11/30 12:49:59;;;;;;;1.85;1.27;;;19.30;99.90;;;;;;5028132;28;20025;-68